sensor_id;sensor_type;location;lat;lon;timestamp;pressure;altitude;pressure_sealevel;temperature;humidity
39275;BME280;24980;48.874;2.332;2023-12-14T00:02:14;100581.70;;;23.64;45.00
39275;BME280;24980;48.874;2.332;2023-12-14T00:04:44;100590.63;;;23.66;45.03
39275;BME280;24980;48.874;2.332;2023-12-14T00:07:14;100593.34;;;23.69;45.04
39275;BME280;24980;48.874;2.332;2023-12-14T00:09:45;100594.55;;;23.72;45.07
39275;BME280;24980;48.874;2.332;2023-12-14T00:12:15;100596.17;;;23.74;45.09
39275;BME280;24980;48.874;2.332;2023-12-14T00:14:45;100603.94;;;23.76;45.13
39275;BME280;24980;48.874;2.332;2023-12-14T00:17:15;100608.84;;;23.79;45.16
39275;BME280;24980;48.874;2.332;2023-12-14T00:19:45;100614.95;;;23.78;45.18
39275;BME280;24980;48.874;2.332;2023-12-14T00:22:16;100618.42;;;23.78;45.21
39275;BME280;24980;48.874;2.332;2023-12-14T00:24:46;100626.97;;;23.78;45.22
39275;BME280;24980;48.874;2.332;2023-12-14T00:27:16;100626.83;;;23.76;45.24
39275;BME280;24980;48.874;2.332;2023-12-14T00:29:49;100636.69;;;23.76;45.28
39275;BME280;24980;48.874;2.332;2023-12-14T00:32:16;100633.08;;;23.77;45.29
39275;BME280;24980;48.874;2.332;2023-12-14T00:34:46;100638.92;;;23.77;45.29
39275;BME280;24980;48.874;2.332;2023-12-14T00:37:17;100643.58;;;23.77;45.31
39275;BME280;24980;48.874;2.332;2023-12-14T00:39:47;100644.69;;;23.76;45.31
39275;BME280;24980;48.874;2.332;2023-12-14T00:42:17;100653.22;;;23.77;45.31
39275;BME280;24980;48.874;2.332;2023-12-14T00:44:47;100665.14;;;23.78;45.31
39275;BME280;24980;48.874;2.332;2023-12-14T00:47:17;100663.98;;;23.80;45.28
39275;BME280;24980;48.874;2.332;2023-12-14T00:49:47;100667.60;;;23.81;45.26
39275;BME280;24980;48.874;2.332;2023-12-14T00:52:17;100675.66;;;23.80;45.27
39275;BME280;24980;48.874;2.332;2023-12-14T00:54:47;100684.64;;;23.79;45.30
39275;BME280;24980;48.874;2.332;2023-12-14T00:57:17;100690.73;;;23.79;45.29
39275;BME280;24980;48.874;2.332;2023-12-14T00:59:47;100693.23;;;23.79;45.29
39275;BME280;24980;48.874;2.332;2023-12-14T01:02:21;100698.07;;;23.77;45.30
39275;BME280;24980;48.874;2.332;2023-12-14T01:04:48;100701.59;;;23.76;45.29
39275;BME280;24980;48.874;2.332;2023-12-14T01:07:18;100705.44;;;23.77;45.30
39275;BME280;24980;48.874;2.332;2023-12-14T01:09:51;100703.73;;;23.78;45.27
39275;BME280;24980;48.874;2.332;2023-12-14T01:12:19;100710.44;;;23.81;45.25
39275;BME280;24980;48.874;2.332;2023-12-14T01:14:52;100710.70;;;23.83;45.24
39275;BME280;24980;48.874;2.332;2023-12-14T01:17:21;100710.88;;;23.83;45.24
39275;BME280;24980;48.874;2.332;2023-12-14T01:19:51;100717.83;;;23.83;45.25
39275;BME280;24980;48.874;2.332;2023-12-14T01:22:21;100722.64;;;23.83;45.27
39275;BME280;24980;48.874;2.332;2023-12-14T01:24:54;100729.77;;;23.82;45.30
39275;BME280;24980;48.874;2.332;2023-12-14T01:27:21;100732.05;;;23.83;45.33
39275;BME280;24980;48.874;2.332;2023-12-14T01:29:51;100740.25;;;23.82;45.36
39275;BME280;24980;48.874;2.332;2023-12-14T01:32:22;100741.84;;;23.84;45.37
39275;BME280;24980;48.874;2.332;2023-12-14T01:34:52;100742.20;;;23.83;45.39
39275;BME280;24980;48.874;2.332;2023-12-14T01:37:24;100750.75;;;23.83;45.43
39275;BME280;24980;48.874;2.332;2023-12-14T01:39:58;100753.20;;;23.83;45.45
39275;BME280;24980;48.874;2.332;2023-12-14T01:42:23;100754.14;;;23.82;45.46
39275;BME280;24980;48.874;2.332;2023-12-14T01:44:54;100760.89;;;23.83;45.46
39275;BME280;24980;48.874;2.332;2023-12-14T01:47:24;100769.80;;;23.83;45.47
39275;BME280;24980;48.874;2.332;2023-12-14T01:49:54;100772.92;;;23.82;45.48
39275;BME280;24980;48.874;2.332;2023-12-14T01:52:24;100782.31;;;23.84;45.49
39275;BME280;24980;48.874;2.332;2023-12-14T01:54:54;100781.84;;;23.82;45.51
39275;BME280;24980;48.874;2.332;2023-12-14T01:57:25;100791.51;;;23.81;45.53
39275;BME280;24980;48.874;2.332;2023-12-14T01:59:55;100793.64;;;23.80;45.54
39275;BME280;24980;48.874;2.332;2023-12-14T02:02:28;100805.73;;;23.81;45.55
39275;BME280;24980;48.874;2.332;2023-12-14T02:04:55;100816.39;;;23.81;45.56
39275;BME280;24980;48.874;2.332;2023-12-14T02:07:27;100814.78;;;23.82;45.55
39275;BME280;24980;48.874;2.332;2023-12-14T02:09:56;100817.60;;;23.83;45.55
39275;BME280;24980;48.874;2.332;2023-12-14T02:12:31;100830.63;;;23.84;45.54
39275;BME280;24980;48.874;2.332;2023-12-14T02:14:57;100835.98;;;23.83;45.54
39275;BME280;24980;48.874;2.332;2023-12-14T02:17:30;100835.53;;;23.80;45.57
39275;BME280;24980;48.874;2.332;2023-12-14T02:22:27;100837.06;;;23.80;45.59
39275;BME280;24980;48.874;2.332;2023-12-14T02:24:57;100841.00;;;23.79;45.60
39275;BME280;24980;48.874;2.332;2023-12-14T02:27:28;100848.41;;;23.79;45.60
39275;BME280;24980;48.874;2.332;2023-12-14T02:29:58;100853.65;;;23.80;45.62
39275;BME280;24980;48.874;2.332;2023-12-14T02:32:28;100857.33;;;23.79;45.63
39275;BME280;24980;48.874;2.332;2023-12-14T02:34:58;100858.61;;;23.78;45.65
39275;BME280;24980;48.874;2.332;2023-12-14T02:37:28;100863.25;;;23.79;45.65
39275;BME280;24980;48.874;2.332;2023-12-14T02:40:01;100860.73;;;23.78;45.65
39275;BME280;24980;48.874;2.332;2023-12-14T02:42:29;100866.81;;;23.79;45.65
39275;BME280;24980;48.874;2.332;2023-12-14T02:45:00;100872.65;;;23.79;45.66
39275;BME280;24980;48.874;2.332;2023-12-14T02:47:30;100871.12;;;23.79;45.65
39275;BME280;24980;48.874;2.332;2023-12-14T02:50:00;100876.25;;;23.79;45.59
39275;BME280;24980;48.874;2.332;2023-12-14T02:52:32;100878.11;;;23.79;45.66
39275;BME280;24980;48.874;2.332;2023-12-14T02:55:01;100882.77;;;23.80;45.66
39275;BME280;24980;48.874;2.332;2023-12-14T02:57:32;100881.91;;;23.81;45.65
39275;BME280;24980;48.874;2.332;2023-12-14T03:00:06;100887.49;;;23.81;45.65
39275;BME280;24980;48.874;2.332;2023-12-14T03:02:36;100889.35;;;23.81;45.64
39275;BME280;24980;48.874;2.332;2023-12-14T03:05:07;100888.12;;;23.83;45.64
39275;BME280;24980;48.874;2.332;2023-12-14T03:07:33;100896.16;;;23.83;45.64
39275;BME280;24980;48.874;2.332;2023-12-14T03:10:03;100899.88;;;23.83;45.64
39275;BME280;24980;48.874;2.332;2023-12-14T03:12:33;100904.20;;;23.83;45.65
39275;BME280;24980;48.874;2.332;2023-12-14T03:15:04;100907.92;;;23.83;45.64
39275;BME280;24980;48.874;2.332;2023-12-14T03:17:34;100912.99;;;23.84;45.65
39275;BME280;24980;48.874;2.332;2023-12-14T03:20:04;100921.38;;;23.83;45.65
39275;BME280;24980;48.874;2.332;2023-12-14T03:22:35;100925.94;;;23.84;45.65
39275;BME280;24980;48.874;2.332;2023-12-14T03:25:06;100928.98;;;23.84;45.64
39275;BME280;24980;48.874;2.332;2023-12-14T03:27:35;100932.38;;;23.83;45.67
39275;BME280;24980;48.874;2.332;2023-12-14T03:30:06;100936.95;;;23.82;45.69
39275;BME280;24980;48.874;2.332;2023-12-14T03:32:36;100930.27;;;23.83;45.71
39275;BME280;24980;48.874;2.332;2023-12-14T03:35:06;100945.58;;;23.84;45.72
39275;BME280;24980;48.874;2.332;2023-12-14T03:37:41;100951.59;;;23.83;45.73
39275;BME280;24980;48.874;2.332;2023-12-14T03:40:07;100951.62;;;23.86;45.71
39275;BME280;24980;48.874;2.332;2023-12-14T03:42:38;100963.63;;;23.86;45.71
39275;BME280;24980;48.874;2.332;2023-12-14T03:45:08;100961.10;;;23.86;45.70
39275;BME280;24980;48.874;2.332;2023-12-14T03:50:11;100977.41;;;23.83;45.70
39275;BME280;24980;48.874;2.332;2023-12-14T03:52:47;100974.35;;;23.84;45.68
39275;BME280;24980;48.874;2.332;2023-12-14T03:55:11;100983.73;;;23.85;45.64
39275;BME280;24980;48.874;2.332;2023-12-14T03:57:42;100989.29;;;23.86;45.63
39275;BME280;24980;48.874;2.332;2023-12-14T04:00:14;100996.36;;;23.85;45.63
39275;BME280;24980;48.874;2.332;2023-12-14T04:02:41;100998.82;;;23.84;45.63
39275;BME280;24980;48.874;2.332;2023-12-14T04:05:12;101003.89;;;23.85;45.62
39275;BME280;24980;48.874;2.332;2023-12-14T04:07:42;101007.53;;;23.84;45.62
39275;BME280;24980;48.874;2.332;2023-12-14T04:10:12;101005.77;;;23.83;45.63
39275;BME280;24980;48.874;2.332;2023-12-14T04:12:43;101007.88;;;23.83;45.62
39275;BME280;24980;48.874;2.332;2023-12-14T04:15:13;101013.63;;;23.84;45.62
39275;BME280;24980;48.874;2.332;2023-12-14T04:17:43;101023.32;;;23.86;45.61
39275;BME280;24980;48.874;2.332;2023-12-14T04:20:14;101026.15;;;23.85;45.60
39275;BME280;24980;48.874;2.332;2023-12-14T04:22:43;101033.95;;;23.84;45.60
39275;BME280;24980;48.874;2.332;2023-12-14T04:25:13;101040.04;;;23.84;45.60
39275;BME280;24980;48.874;2.332;2023-12-14T04:27:44;101048.41;;;23.85;45.58
39275;BME280;24980;48.874;2.332;2023-12-14T04:30:14;101052.73;;;23.85;45.57
39275;BME280;24980;48.874;2.332;2023-12-14T04:32:44;101061.62;;;23.85;45.58
39275;BME280;24980;48.874;2.332;2023-12-14T04:35:17;101068.22;;;23.85;45.57
39275;BME280;24980;48.874;2.332;2023-12-14T04:37:45;101071.27;;;23.85;45.55
39275;BME280;24980;48.874;2.332;2023-12-14T04:40:15;101087.27;;;23.85;45.57
39275;BME280;24980;48.874;2.332;2023-12-14T04:42:45;101088.92;;;23.86;45.57
39275;BME280;24980;48.874;2.332;2023-12-14T04:45:19;101091.67;;;23.84;45.56
39275;BME280;24980;48.874;2.332;2023-12-14T04:47:54;101097.76;;;23.85;45.57
39275;BME280;24980;48.874;2.332;2023-12-14T04:50:16;101103.91;;;23.86;45.55
39275;BME280;24980;48.874;2.332;2023-12-14T04:52:46;101115.75;;;23.86;45.55
39275;BME280;24980;48.874;2.332;2023-12-14T04:55:16;101124.95;;;23.83;45.56
39275;BME280;24980;48.874;2.332;2023-12-14T04:57:46;101128.80;;;23.82;45.56
39275;BME280;24980;48.874;2.332;2023-12-14T05:00:16;101125.03;;;23.82;45.56
39275;BME280;24980;48.874;2.332;2023-12-14T05:02:47;101132.10;;;23.81;45.57
39275;BME280;24980;48.874;2.332;2023-12-14T05:05:17;101131.17;;;23.81;45.57
39275;BME280;24980;48.874;2.332;2023-12-14T05:07:47;101139.38;;;23.81;45.58
39275;BME280;24980;48.874;2.332;2023-12-14T05:10:17;101145.39;;;23.81;45.58
39275;BME280;24980;48.874;2.332;2023-12-14T05:12:47;101151.31;;;23.82;45.57
39275;BME280;24980;48.874;2.332;2023-12-14T05:15:17;101152.71;;;23.83;45.56
39275;BME280;24980;48.874;2.332;2023-12-14T05:17:48;101160.59;;;23.82;45.57
39275;BME280;24980;48.874;2.332;2023-12-14T05:20:18;101160.03;;;23.82;45.56
39275;BME280;24980;48.874;2.332;2023-12-14T05:22:49;101163.59;;;23.81;45.57
39275;BME280;24980;48.874;2.332;2023-12-14T05:25:22;101172.31;;;23.79;45.58
39275;BME280;24980;48.874;2.332;2023-12-14T05:27:49;101176.12;;;23.80;45.58
39275;BME280;24980;48.874;2.332;2023-12-14T05:30:23;101185.39;;;23.79;45.58
39275;BME280;24980;48.874;2.332;2023-12-14T05:32:50;101188.02;;;23.79;45.59
39275;BME280;24980;48.874;2.332;2023-12-14T05:35:20;101192.41;;;23.79;45.60
39275;BME280;24980;48.874;2.332;2023-12-14T05:37:51;101196.22;;;23.79;45.60
39275;BME280;24980;48.874;2.332;2023-12-14T05:40:27;101201.09;;;23.80;45.60
39275;BME280;24980;48.874;2.332;2023-12-14T05:42:52;101202.36;;;23.81;45.58
39275;BME280;24980;48.874;2.332;2023-12-14T05:45:22;101204.94;;;23.82;45.56
39275;BME280;24980;48.874;2.332;2023-12-14T05:47:52;101212.47;;;23.84;45.55
39275;BME280;24980;48.874;2.332;2023-12-14T05:50:22;101212.05;;;23.84;45.54
39275;BME280;24980;48.874;2.332;2023-12-14T05:52:53;101212.81;;;23.83;45.54
39275;BME280;24980;48.874;2.332;2023-12-14T05:55:26;101211.50;;;23.82;45.54
39275;BME280;24980;48.874;2.332;2023-12-14T05:57:54;101215.09;;;23.82;45.54
39275;BME280;24980;48.874;2.332;2023-12-14T06:00:24;101224.24;;;23.82;45.53
39275;BME280;24980;48.874;2.332;2023-12-14T06:02:54;101223.00;;;23.82;45.53
39275;BME280;24980;48.874;2.332;2023-12-14T06:05:24;101233.98;;;23.83;45.53
39275;BME280;24980;48.874;2.332;2023-12-14T06:07:54;101237.83;;;23.81;45.53
39275;BME280;24980;48.874;2.332;2023-12-14T06:10:24;101243.33;;;23.81;45.53
39275;BME280;24980;48.874;2.332;2023-12-14T06:12:55;101248.23;;;23.81;45.53
39275;BME280;24980;48.874;2.332;2023-12-14T06:15:25;101256.53;;;23.81;45.53
39275;BME280;24980;48.874;2.332;2023-12-14T06:17:58;101266.09;;;23.81;45.53
39275;BME280;24980;48.874;2.332;2023-12-14T06:20:26;101274.64;;;23.81;45.53
39275;BME280;24980;48.874;2.332;2023-12-14T06:22:59;101280.91;;;23.80;45.54
39275;BME280;24980;48.874;2.332;2023-12-14T06:25:32;101291.07;;;23.81;45.53
39275;BME280;24980;48.874;2.332;2023-12-14T06:27:57;101292.67;;;23.81;45.54
39275;BME280;24980;48.874;2.332;2023-12-14T06:30:27;101303.77;;;23.82;45.53
39275;BME280;24980;48.874;2.332;2023-12-14T06:32:57;101307.88;;;23.83;45.51
39275;BME280;24980;48.874;2.332;2023-12-14T06:35:27;101317.02;;;23.82;45.52
39275;BME280;24980;48.874;2.332;2023-12-14T06:37:57;101320.61;;;23.82;45.51
39275;BME280;24980;48.874;2.332;2023-12-14T06:40:27;101327.09;;;23.83;45.50
39275;BME280;24980;48.874;2.332;2023-12-14T06:42:57;101331.19;;;23.82;45.50
39275;BME280;24980;48.874;2.332;2023-12-14T06:45:27;101338.69;;;23.82;45.47
39275;BME280;24980;48.874;2.332;2023-12-14T06:47:57;101350.70;;;23.82;45.47
39275;BME280;24980;48.874;2.332;2023-12-14T06:50:27;101347.16;;;23.83;45.46
39275;BME280;24980;48.874;2.332;2023-12-14T06:52:57;101356.89;;;23.83;45.47
39275;BME280;24980;48.874;2.332;2023-12-14T06:55:27;101365.44;;;23.82;45.46
39275;BME280;24980;48.874;2.332;2023-12-14T06:58:00;101371.95;;;23.83;45.44
39275;BME280;24980;48.874;2.332;2023-12-14T07:00:28;101376.61;;;23.83;45.42
39275;BME280;24980;48.874;2.332;2023-12-14T07:03:02;101377.80;;;23.83;45.43
39275;BME280;24980;48.874;2.332;2023-12-14T07:05:29;101385.33;;;23.84;45.42
39275;BME280;24980;48.874;2.332;2023-12-14T07:07:59;101392.27;;;23.83;45.42
39275;BME280;24980;48.874;2.332;2023-12-14T07:10:29;101398.78;;;23.83;45.42
39275;BME280;24980;48.874;2.332;2023-12-14T07:12:59;101403.56;;;23.82;45.43
39275;BME280;24980;48.874;2.332;2023-12-14T07:15:29;101402.47;;;23.81;45.45
39275;BME280;24980;48.874;2.332;2023-12-14T07:17:59;101413.98;;;23.81;45.44
39275;BME280;24980;48.874;2.332;2023-12-14T07:20:29;101419.39;;;23.81;45.44
39275;BME280;24980;48.874;2.332;2023-12-14T07:22:59;101418.47;;;23.81;45.44
39275;BME280;24980;48.874;2.332;2023-12-14T07:25:29;101421.81;;;23.82;45.43
39275;BME280;24980;48.874;2.332;2023-12-14T07:27:59;101424.77;;;23.83;45.42
39275;BME280;24980;48.874;2.332;2023-12-14T07:30:29;101427.66;;;23.84;45.42
39275;BME280;24980;48.874;2.332;2023-12-14T07:33:00;101434.68;;;23.83;45.42
39275;BME280;24980;48.874;2.332;2023-12-14T07:35:30;101442.55;;;23.83;45.41
39275;BME280;24980;48.874;2.332;2023-12-14T07:38:00;101451.78;;;23.83;45.40
39275;BME280;24980;48.874;2.332;2023-12-14T07:40:30;101459.56;;;23.83;45.41
39275;BME280;24980;48.874;2.332;2023-12-14T07:43:00;101467.10;;;23.83;45.39
39275;BME280;24980;48.874;2.332;2023-12-14T07:45:30;101472.86;;;23.83;45.39
39275;BME280;24980;48.874;2.332;2023-12-14T07:48:00;101475.56;;;23.85;45.38
39275;BME280;24980;48.874;2.332;2023-12-14T07:50:30;101481.16;;;23.84;45.38
39275;BME280;24980;48.874;2.332;2023-12-14T07:53:00;101487.00;;;23.82;45.39
39275;BME280;24980;48.874;2.332;2023-12-14T07:55:31;101490.33;;;23.82;45.41
39275;BME280;24980;48.874;2.332;2023-12-14T07:58:01;101493.80;;;23.80;45.39
39275;BME280;24980;48.874;2.332;2023-12-14T08:00:31;101500.74;;;23.81;45.39
39275;BME280;24980;48.874;2.332;2023-12-14T08:03:01;101504.64;;;23.81;45.37
39275;BME280;24980;48.874;2.332;2023-12-14T08:05:31;101506.88;;;23.78;45.38
39275;BME280;24980;48.874;2.332;2023-12-14T08:08:01;101515.17;;;23.77;45.41
39275;BME280;24980;48.874;2.332;2023-12-14T08:10:31;101513.59;;;23.75;45.42
39275;BME280;24980;48.874;2.332;2023-12-14T08:13:03;101528.32;;;23.74;45.43
39275;BME280;24980;48.874;2.332;2023-12-14T08:15:31;101529.76;;;23.73;45.44
39275;BME280;24980;48.874;2.332;2023-12-14T08:18:01;101534.28;;;23.72;45.44
39275;BME280;24980;48.874;2.332;2023-12-14T08:20:31;101541.55;;;23.72;45.44
39275;BME280;24980;48.874;2.332;2023-12-14T08:23:01;101543.25;;;23.72;45.44
39275;BME280;24980;48.874;2.332;2023-12-14T08:25:31;101551.20;;;23.72;45.44
39275;BME280;24980;48.874;2.332;2023-12-14T08:28:01;101556.62;;;23.70;45.44
39275;BME280;24980;48.874;2.332;2023-12-14T08:30:32;101556.40;;;23.69;45.44
39275;BME280;24980;48.874;2.332;2023-12-14T08:33:02;101561.73;;;23.69;45.43
39275;BME280;24980;48.874;2.332;2023-12-14T08:35:32;101564.19;;;23.69;45.45
39275;BME280;24980;48.874;2.332;2023-12-14T08:38:02;101571.77;;;23.70;45.44
39275;BME280;24980;48.874;2.332;2023-12-14T08:40:32;101578.62;;;23.71;45.44
39275;BME280;24980;48.874;2.332;2023-12-14T08:43:02;101586.58;;;23.71;45.44
39275;BME280;24980;48.874;2.332;2023-12-14T08:45:32;101588.95;;;23.70;45.39
39275;BME280;24980;48.874;2.332;2023-12-14T08:48:02;101597.36;;;23.69;45.41
39275;BME280;24980;48.874;2.332;2023-12-14T08:50:32;101599.78;;;23.70;45.40
39275;BME280;24980;48.874;2.332;2023-12-14T08:53:02;101598.09;;;23.70;45.38
39275;BME280;24980;48.874;2.332;2023-12-14T08:55:33;101594.79;;;23.70;45.37
39275;BME280;24980;48.874;2.332;2023-12-14T08:58:03;101605.88;;;23.71;45.35
39275;BME280;24980;48.874;2.332;2023-12-14T09:00:33;101607.41;;;23.72;45.33
39275;BME280;24980;48.874;2.332;2023-12-14T09:03:03;101608.81;;;23.74;45.30
39275;BME280;24980;48.874;2.332;2023-12-14T09:05:33;101607.63;;;23.75;45.29
39275;BME280;24980;48.874;2.332;2023-12-14T09:08:03;101614.41;;;23.76;45.29
39275;BME280;24980;48.874;2.332;2023-12-14T09:10:33;101621.60;;;23.75;45.27
39275;BME280;24980;48.874;2.332;2023-12-14T09:13:04;101629.64;;;23.75;45.29
39275;BME280;24980;48.874;2.332;2023-12-14T09:15:34;101630.15;;;23.75;45.27
39275;BME280;24980;48.874;2.332;2023-12-14T09:18:04;101643.09;;;23.73;45.29
39275;BME280;24980;48.874;2.332;2023-12-14T09:20:34;101645.33;;;23.73;45.28
39275;BME280;24980;48.874;2.332;2023-12-14T09:23:05;101652.69;;;23.72;45.28
39275;BME280;24980;48.874;2.332;2023-12-14T09:25:37;101659.63;;;23.72;45.27
39275;BME280;24980;48.874;2.332;2023-12-14T09:28:06;101661.07;;;23.73;45.26
39275;BME280;24980;48.874;2.332;2023-12-14T09:30:36;101660.53;;;23.73;45.25
39275;BME280;24980;48.874;2.332;2023-12-14T09:33:06;101661.72;;;23.73;45.24
39275;BME280;24980;48.874;2.332;2023-12-14T09:35:36;101672.84;;;23.72;45.23
39275;BME280;24980;48.874;2.332;2023-12-14T09:38:07;101669.92;;;23.73;45.23
39275;BME280;24980;48.874;2.332;2023-12-14T09:40:37;101672.84;;;23.72;45.23
39275;BME280;24980;48.874;2.332;2023-12-14T09:43:07;101682.23;;;23.72;45.23
39275;BME280;24980;48.874;2.332;2023-12-14T09:45:38;101682.06;;;23.71;45.21
39275;BME280;24980;48.874;2.332;2023-12-14T09:48:10;101688.07;;;23.72;45.21
39275;BME280;24980;48.874;2.332;2023-12-14T09:50:41;101691.20;;;23.71;45.21
39275;BME280;24980;48.874;2.332;2023-12-14T09:53:13;101690.69;;;23.70;45.19
39275;BME280;24980;48.874;2.332;2023-12-14T09:55:45;101696.70;;;23.70;45.19
39275;BME280;24980;48.874;2.332;2023-12-14T09:58:14;101704.58;;;23.71;45.18
39275;BME280;24980;48.874;2.332;2023-12-14T10:00:43;101706.09;;;23.71;45.18
39275;BME280;24980;48.874;2.332;2023-12-14T10:03:28;101714.81;;;23.71;45.18
39275;BME280;24980;48.874;2.332;2023-12-14T10:05:39;101718.12;;;23.72;45.17
39275;BME280;24980;48.874;2.332;2023-12-14T10:08:09;101715.75;;;23.71;45.17
39275;BME280;24980;48.874;2.332;2023-12-14T10:10:39;101716.50;;;23.71;45.16
39275;BME280;24980;48.874;2.332;2023-12-14T10:13:09;101723.62;;;23.72;45.16
39275;BME280;24980;48.874;2.332;2023-12-14T10:15:43;101723.95;;;23.70;45.16
39275;BME280;24980;48.874;2.332;2023-12-14T10:18:10;101727.09;;;23.71;45.16
39275;BME280;24980;48.874;2.332;2023-12-14T10:20:40;101728.61;;;23.71;45.15
39275;BME280;24980;48.874;2.332;2023-12-14T10:23:13;101736.57;;;23.72;45.15
39275;BME280;24980;48.874;2.332;2023-12-14T10:25:42;101735.30;;;23.71;45.14
39275;BME280;24980;48.874;2.332;2023-12-14T10:28:13;101744.02;;;23.72;45.15
39275;BME280;24980;48.874;2.332;2023-12-14T10:30:43;101748.91;;;23.74;45.13
39275;BME280;24980;48.874;2.332;2023-12-14T10:33:13;101756.19;;;23.74;45.13
39275;BME280;24980;48.874;2.332;2023-12-14T10:38:15;101766.27;;;23.75;45.10
39275;BME280;24980;48.874;2.332;2023-12-14T10:40:46;101771.84;;;23.75;45.09
39275;BME280;24980;48.874;2.332;2023-12-14T10:43:15;101779.12;;;23.73;45.08
39275;BME280;24980;48.874;2.332;2023-12-14T10:45:46;101786.43;;;23.72;45.08
39275;BME280;24980;48.874;2.332;2023-12-14T10:48:17;101779.40;;;23.71;45.08
39275;BME280;24980;48.874;2.332;2023-12-14T10:50:48;101778.55;;;23.70;45.06
39275;BME280;24980;48.874;2.332;2023-12-14T10:53:17;101781.25;;;23.70;45.07
39275;BME280;24980;48.874;2.332;2023-12-14T10:55:48;101781.19;;;23.67;45.06
39275;BME280;24980;48.874;2.332;2023-12-14T10:58:19;101785.34;;;23.68;45.05
39275;BME280;24980;48.874;2.332;2023-12-14T11:00:59;101792.88;;;23.68;45.05
39275;BME280;24980;48.874;2.332;2023-12-14T11:03:19;101801.77;;;23.68;45.05
39275;BME280;24980;48.874;2.332;2023-12-14T11:05:55;101805.57;;;23.68;45.04
39275;BME280;24980;48.874;2.332;2023-12-14T11:08:20;101802.44;;;23.68;45.03
39275;BME280;24980;48.874;2.332;2023-12-14T11:10:54;101809.89;;;23.69;45.01
39275;BME280;24980;48.874;2.332;2023-12-14T11:13:22;101809.22;;;23.69;44.99
39275;BME280;24980;48.874;2.332;2023-12-14T11:16:03;101813.36;;;23.69;44.98
39275;BME280;24980;48.874;2.332;2023-12-14T11:18:24;101810.73;;;23.69;44.98
39275;BME280;24980;48.874;2.332;2023-12-14T11:20:55;101816.91;;;23.68;44.96
39275;BME280;24980;48.874;2.332;2023-12-14T11:23:31;101816.40;;;23.67;44.97
39275;BME280;24980;48.874;2.332;2023-12-14T11:25:59;101820.63;;;23.67;44.99
39275;BME280;24980;48.874;2.332;2023-12-14T11:28:28;101825.45;;;23.68;44.97
39275;BME280;24980;48.874;2.332;2023-12-14T11:30:56;101827.16;;;23.68;44.98
39275;BME280;24980;48.874;2.332;2023-12-14T11:33:26;101829.19;;;23.68;44.98
39275;BME280;24980;48.874;2.332;2023-12-14T11:35:56;101827.50;;;23.69;44.99
39275;BME280;24980;48.874;2.332;2023-12-14T11:38:26;101827.75;;;23.68;45.00
39275;BME280;24980;48.874;2.332;2023-12-14T11:40:58;101830.80;;;23.69;45.01
39275;BME280;24980;48.874;2.332;2023-12-14T11:43:28;101831.36;;;23.70;45.03
39275;BME280;24980;48.874;2.332;2023-12-14T11:45:58;101830.86;;;23.70;45.04
39275;BME280;24980;48.874;2.332;2023-12-14T11:48:28;101835.27;;;23.71;45.04
39275;BME280;24980;48.874;2.332;2023-12-14T11:50:58;101835.52;;;23.72;45.01
39275;BME280;24980;48.874;2.332;2023-12-14T11:53:32;101836.34;;;23.73;45.00
39275;BME280;24980;48.874;2.332;2023-12-14T11:56:01;101842.52;;;23.74;44.98
39275;BME280;24980;48.874;2.332;2023-12-14T11:58:31;101834.09;;;23.73;44.98
39275;BME280;24980;48.874;2.332;2023-12-14T12:01:11;101838.99;;;23.72;44.98
39275;BME280;24980;48.874;2.332;2023-12-14T12:03:32;101834.17;;;23.72;44.97
39275;BME280;24980;48.874;2.332;2023-12-14T12:06:00;101832.97;;;23.70;44.96
39275;BME280;24980;48.874;2.332;2023-12-14T12:08:30;101825.05;;;23.69;44.94
39275;BME280;24980;48.874;2.332;2023-12-14T12:11:00;101827.30;;;23.70;44.92
39275;BME280;24980;48.874;2.332;2023-12-14T12:13:30;101825.35;;;23.70;44.90
39275;BME280;24980;48.874;2.332;2023-12-14T12:16:00;101820.30;;;23.69;44.88
39275;BME280;24980;48.874;2.332;2023-12-14T12:18:30;101825.72;;;23.68;44.85
39275;BME280;24980;48.874;2.332;2023-12-14T12:21:00;101830.62;;;23.67;44.84
39275;BME280;24980;48.874;2.332;2023-12-14T12:23:30;101829.10;;;23.68;44.82
39275;BME280;24980;48.874;2.332;2023-12-14T12:26:03;101830.28;;;23.68;44.80
39275;BME280;24980;48.874;2.332;2023-12-14T12:28:31;101830.46;;;23.69;44.77
39275;BME280;24980;48.874;2.332;2023-12-14T12:31:00;101828.31;;;23.70;44.76
39275;BME280;24980;48.874;2.332;2023-12-14T12:33:30;101825.21;;;23.69;44.75
39275;BME280;24980;48.874;2.332;2023-12-14T12:36:03;101825.38;;;23.67;44.75
39275;BME280;24980;48.874;2.332;2023-12-14T12:38:31;101827.09;;;23.66;44.74
39275;BME280;24980;48.874;2.332;2023-12-14T12:41:01;101830.64;;;23.65;44.72
39275;BME280;24980;48.874;2.332;2023-12-14T12:43:31;101832.75;;;23.65;44.71
39275;BME280;24980;48.874;2.332;2023-12-14T12:46:01;101835.38;;;23.64;44.68
39275;BME280;24980;48.874;2.332;2023-12-14T12:48:31;101838.53;;;23.63;44.67
39275;BME280;24980;48.874;2.332;2023-12-14T12:51:02;101837.31;;;23.63;44.65
39275;BME280;24980;48.874;2.332;2023-12-14T12:53:32;101844.43;;;23.64;44.62
39275;BME280;24980;48.874;2.332;2023-12-14T12:56:02;101846.04;;;23.64;44.61
39275;BME280;24980;48.874;2.332;2023-12-14T12:58:32;101842.48;;;23.64;44.58
39275;BME280;24980;48.874;2.332;2023-12-14T13:01:03;101844.17;;;23.64;44.58
39275;BME280;24980;48.874;2.332;2023-12-14T13:06:03;101844.11;;;23.62;44.56
39275;BME280;24980;48.874;2.332;2023-12-14T13:08:33;101843.69;;;23.62;44.54
39275;BME280;24980;48.874;2.332;2023-12-14T13:11:03;101853.76;;;23.61;44.53
39275;BME280;24980;48.874;2.332;2023-12-14T13:13:33;101854.44;;;23.61;44.52
39275;BME280;24980;48.874;2.332;2023-12-14T13:16:04;101857.66;;;23.62;44.52